Briefing drone pour Sennecey-le-grand

Rechercher une autre localisation

Conditions de vol :


Nous sommes le : Vendredi 02 décembre 2022
Il est 13:34 UTC (14:34 LT)

Lever de soleil : 06:39 UTC (07:39 LT)
Coucher de soleil : 16:20 UTC (17:20 LT)

Météo

L'essentiel des conditions de vol

VIGILANCE MÉTÉO FRANCE - Saône-et-Loire (71)
Pas de vigilances particulieres
CARTES DES FRONTS
METAR de LFLH
LFLH 021330Z AUTO 03005KT 350V050 9999 OVC016 05/02 Q1016

Date d'émission: 02/12/2022
Heure d'émission: 13:30 UTC
Vent: 030° (variable du 350° au 050°) pour 5 KT (9 km/h)
Visibilité horizontale: > 10 km
Plafond :
- Couvert à 1600ft (488m)
Température: 5 °C
Point de rosée: 2 °C
Humidité: 81%
Pression (QNH): 1016 hPa
Prévision 24h pour Chalon-sur-saone (9 km)
Vent : 19° pour 4 KT (14 km/h)
Temperature Maxi: 3 °C
Temperature Min: 3 °C
Humidité : 87%
Condition : Couvert



Warning: count(): Parameter must be an array or an object that implements Countable in /homepages/6/d509196549/htdocs/droneoxygene/briefing.php on line 743
WEBCAM POUR SENNECEY-LE-GRAND

Réglementation

Voler en sécurité

CARTES AERONAUTIQUE 1/500.000
CARTE AZBA (Reseau basse altitude)
CARTES VAC (LFLH)
SUP AIP




Chargement des AIP...
NOTAM (SENNECEY-LE-GRAND + Terrain à proximité / FIR )




Chargement des NOTAMS...
CONTACT PREFECTURE 71


Avertissement : Les données mises à disposition sont indicatives. Oxygène Drone ne pourra être tenu responsable de dégâts causés aux biens et aux personnes.